sensor_id;sensor_type;location;lat;lon;timestamp;temperature;humidity
3678;DHT22;1855;50.934;6.958;2023-03-01T00:02:15;0.20;81.70
3678;DHT22;1855;50.934;6.958;2023-03-01T00:04:44;0.20;81.10
3678;DHT22;1855;50.934;6.958;2023-03-01T00:07:12;0.20;81.20
3678;DHT22;1855;50.934;6.958;2023-03-01T00:09:39;0.10;83.40
3678;DHT22;1855;50.934;6.958;2023-03-01T00:12:06;0.10;83.80
3678;DHT22;1855;50.934;6.958;2023-03-01T00:14:33;0.20;84.50
3678;DHT22;1855;50.934;6.958;2023-03-01T00:16:59;0.20;85.30
3678;DHT22;1855;50.934;6.958;2023-03-01T00:19:27;0.10;85.10
3678;DHT22;1855;50.934;6.958;2023-03-01T00:21:54;0.20;84.50
3678;DHT22;1855;50.934;6.958;2023-03-01T00:24:22;0.20;84.70
3678;DHT22;1855;50.934;6.958;2023-03-01T00:26:52;0.20;84.10
3678;DHT22;1855;50.934;6.958;2023-03-01T00:29:20;0.10;83.80
3678;DHT22;1855;50.934;6.958;2023-03-01T00:31:47;0.00;85.10
3678;DHT22;1855;50.934;6.958;2023-03-01T00:34:14;0.00;87.30
3678;DHT22;1855;50.934;6.958;2023-03-01T00:36:41;-0.10;87.70
3678;DHT22;1855;50.934;6.958;2023-03-01T00:39:11;-0.10;88.50
3678;DHT22;1855;50.934;6.958;2023-03-01T00:41:40;-0.20;89.90
3678;DHT22;1855;50.934;6.958;2023-03-01T00:44:07;-0.10;90.00
3678;DHT22;1855;50.934;6.958;2023-03-01T00:46:33;-0.10;90.30
3678;DHT22;1855;50.934;6.958;2023-03-01T00:49:00;-0.20;90.10
3678;DHT22;1855;50.934;6.958;2023-03-01T00:51:28;-0.20;90.80
3678;DHT22;1855;50.934;6.958;2023-03-01T00:53:56;-0.20;90.70
3678;DHT22;1855;50.934;6.958;2023-03-01T00:56:24;-0.30;90.90
3678;DHT22;1855;50.934;6.958;2023-03-01T00:58:52;-0.30;91.10
3678;DHT22;1855;50.934;6.958;2023-03-01T01:01:21;-0.30;91.20
3678;DHT22;1855;50.934;6.958;2023-03-01T01:03:50;-0.30;91.30
3678;DHT22;1855;50.934;6.958;2023-03-01T01:06:19;-0.40;91.50
3678;DHT22;1855;50.934;6.958;2023-03-01T01:08:47;-0.30;92.20
3678;DHT22;1855;50.934;6.958;2023-03-01T01:11:14;-0.30;92.00
3678;DHT22;1855;50.934;6.958;2023-03-01T01:13:43;-0.40;91.30
3678;DHT22;1855;50.934;6.958;2023-03-01T01:16:12;-0.40;91.60
3678;DHT22;1855;50.934;6.958;2023-03-01T01:18:39;-0.40;91.60
3678;DHT22;1855;50.934;6.958;2023-03-01T01:21:08;-0.40;91.90
3678;DHT22;1855;50.934;6.958;2023-03-01T01:23:35;-0.30;91.70
3678;DHT22;1855;50.934;6.958;2023-03-01T01:26:06;-0.30;91.90
3678;DHT22;1855;50.934;6.958;2023-03-01T01:28:34;-0.30;91.70
3678;DHT22;1855;50.934;6.958;2023-03-01T01:31:01;-0.30;91.30
3678;DHT22;1855;50.934;6.958;2023-03-01T01:33:29;-0.40;91.10
3678;DHT22;1855;50.934;6.958;2023-03-01T01:35:55;-0.50;91.70
3678;DHT22;1855;50.934;6.958;2023-03-01T01:38:22;-0.50;91.60
3678;DHT22;1855;50.934;6.958;2023-03-01T01:40:50;-0.40;91.70
3678;DHT22;1855;50.934;6.958;2023-03-01T01:43:22;-0.40;91.30
3678;DHT22;1855;50.934;6.958;2023-03-01T01:45:53;-0.50;91.50
3678;DHT22;1855;50.934;6.958;2023-03-01T01:48:23;-0.50;91.50
3678;DHT22;1855;50.934;6.958;2023-03-01T01:50:56;-0.50;91.40
3678;DHT22;1855;50.934;6.958;2023-03-01T01:53:25;-0.50;91.50
3678;DHT22;1855;50.934;6.958;2023-03-01T01:55:58;-0.50;90.90
3678;DHT22;1855;50.934;6.958;2023-03-01T01:58:29;-0.50;91.30
3678;DHT22;1855;50.934;6.958;2023-03-01T02:00:56;-0.50;90.80
3678;DHT22;1855;50.934;6.958;2023-03-01T02:03:27;-0.50;90.70
3678;DHT22;1855;50.934;6.958;2023-03-01T02:05:58;-0.60;90.70
3678;DHT22;1855;50.934;6.958;2023-03-01T02:08:29;-0.60;90.80
3678;DHT22;1855;50.934;6.958;2023-03-01T02:10:58;-0.60;90.90
3678;DHT22;1855;50.934;6.958;2023-03-01T02:13:26;-0.60;91.00
3678;DHT22;1855;50.934;6.958;2023-03-01T02:15:53;-0.70;91.20
3678;DHT22;1855;50.934;6.958;2023-03-01T02:18:21;-0.70;91.80
3678;DHT22;1855;50.934;6.958;2023-03-01T02:20:58;-0.70;91.80
3678;DHT22;1855;50.934;6.958;2023-03-01T02:23:27;-0.70;91.80
3678;DHT22;1855;50.934;6.958;2023-03-01T02:25:59;-0.80;91.40
3678;DHT22;1855;50.934;6.958;2023-03-01T02:28:34;-0.80;91.30
3678;DHT22;1855;50.934;6.958;2023-03-01T02:31:02;-0.90;91.50
3678;DHT22;1855;50.934;6.958;2023-03-01T02:33:47;-0.80;91.80
3678;DHT22;1855;50.934;6.958;2023-03-01T02:36:26;-0.80;91.50
3678;DHT22;1855;50.934;6.958;2023-03-01T02:38:57;-0.90;91.40
3678;DHT22;1855;50.934;6.958;2023-03-01T02:41:26;-1.00;91.70
3678;DHT22;1855;50.934;6.958;2023-03-01T02:43:55;-1.10;92.10
3678;DHT22;1855;50.934;6.958;2023-03-01T02:46:25;-1.20;92.10
3678;DHT22;1855;50.934;6.958;2023-03-01T02:48:54;-1.20;92.80
3678;DHT22;1855;50.934;6.958;2023-03-01T02:51:27;-1.10;92.70
3678;DHT22;1855;50.934;6.958;2023-03-01T02:54:07;-1.20;92.50
3678;DHT22;1855;50.934;6.958;2023-03-01T02:56:34;-1.20;92.90
3678;DHT22;1855;50.934;6.958;2023-03-01T02:59:03;-1.10;92.70
3678;DHT22;1855;50.934;6.958;2023-03-01T03:01:30;-1.20;92.70
3678;DHT22;1855;50.934;6.958;2023-03-01T03:04:03;-1.20;93.10
3678;DHT22;1855;50.934;6.958;2023-03-01T03:06:30;-1.20;93.60
3678;DHT22;1855;50.934;6.958;2023-03-01T03:08:57;-1.20;94.00
3678;DHT22;1855;50.934;6.958;2023-03-01T03:11:24;-1.30;94.20
3678;DHT22;1855;50.934;6.958;2023-03-01T03:13:51;-1.40;94.20
3678;DHT22;1855;50.934;6.958;2023-03-01T03:16:20;-1.50;94.20
3678;DHT22;1855;50.934;6.958;2023-03-01T03:18:47;-1.40;95.00
3678;DHT22;1855;50.934;6.958;2023-03-01T03:21:14;-1.40;94.80
3678;DHT22;1855;50.934;6.958;2023-03-01T03:23:41;-1.40;94.70
3678;DHT22;1855;50.934;6.958;2023-03-01T03:26:08;-1.30;94.50
3678;DHT22;1855;50.934;6.958;2023-03-01T03:28:40;-1.20;94.20
3678;DHT22;1855;50.934;6.958;2023-03-01T03:31:07;-1.30;94.10
3678;DHT22;1855;50.934;6.958;2023-03-01T03:33:35;-1.30;94.00
3678;DHT22;1855;50.934;6.958;2023-03-01T03:36:03;-1.40;93.90
3678;DHT22;1855;50.934;6.958;2023-03-01T03:38:30;-1.50;94.40
3678;DHT22;1855;50.934;6.958;2023-03-01T03:41:02;-1.50;94.80
3678;DHT22;1855;50.934;6.958;2023-03-01T03:43:31;-1.50;94.70
3678;DHT22;1855;50.934;6.958;2023-03-01T03:45:58;-1.40;94.80
3678;DHT22;1855;50.934;6.958;2023-03-01T03:48:26;-1.50;94.20
3678;DHT22;1855;50.934;6.958;2023-03-01T03:50:55;-1.50;94.30
3678;DHT22;1855;50.934;6.958;2023-03-01T03:53:23;-1.50;94.10
3678;DHT22;1855;50.934;6.958;2023-03-01T03:55:51;-1.60;94.50
3678;DHT22;1855;50.934;6.958;2023-03-01T03:58:18;-1.70;94.50
3678;DHT22;1855;50.934;6.958;2023-03-01T04:00:48;-1.70;94.60
3678;DHT22;1855;50.934;6.958;2023-03-01T04:03:16;-1.60;94.70
3678;DHT22;1855;50.934;6.958;2023-03-01T04:05:44;-1.60;94.00
3678;DHT22;1855;50.934;6.958;2023-03-01T04:08:12;-1.60;94.10
3678;DHT22;1855;50.934;6.958;2023-03-01T04:10:41;-1.70;93.70
3678;DHT22;1855;50.934;6.958;2023-03-01T04:13:11;-1.80;94.20
3678;DHT22;1855;50.934;6.958;2023-03-01T04:15:39;-1.90;93.90
3678;DHT22;1855;50.934;6.958;2023-03-01T04:18:06;-1.90;94.40
3678;DHT22;1855;50.934;6.958;2023-03-01T04:20:35;-1.90;94.50
3678;DHT22;1855;50.934;6.958;2023-03-01T04:23:03;-2.00;94.70
3678;DHT22;1855;50.934;6.958;2023-03-01T04:25:39;-2.00;94.80
3678;DHT22;1855;50.934;6.958;2023-03-01T04:28:06;-2.00;95.20
3678;DHT22;1855;50.934;6.958;2023-03-01T04:30:34;-2.00;95.00
3678;DHT22;1855;50.934;6.958;2023-03-01T04:33:02;-2.00;95.10
3678;DHT22;1855;50.934;6.958;2023-03-01T04:35:30;-2.00;95.50
3678;DHT22;1855;50.934;6.958;2023-03-01T04:37:56;-2.00;95.30
3678;DHT22;1855;50.934;6.958;2023-03-01T04:40:23;-2.00;95.50
3678;DHT22;1855;50.934;6.958;2023-03-01T04:42:51;-1.90;95.60
3678;DHT22;1855;50.934;6.958;2023-03-01T04:45:18;-1.80;95.30
3678;DHT22;1855;50.934;6.958;2023-03-01T04:47:46;-1.80;95.10
3678;DHT22;1855;50.934;6.958;2023-03-01T04:50:14;-1.80;95.00
3678;DHT22;1855;50.934;6.958;2023-03-01T04:52:41;-1.80;94.70
3678;DHT22;1855;50.934;6.958;2023-03-01T04:55:09;-1.80;94.70
3678;DHT22;1855;50.934;6.958;2023-03-01T04:57:36;-1.80;94.50
3678;DHT22;1855;50.934;6.958;2023-03-01T05:00:07;-1.80;94.40
3678;DHT22;1855;50.934;6.958;2023-03-01T05:02:46;-1.80;94.70
3678;DHT22;1855;50.934;6.958;2023-03-01T05:05:14;-1.90;94.80
3678;DHT22;1855;50.934;6.958;2023-03-01T05:07:41;-1.90;94.90
3678;DHT22;1855;50.934;6.958;2023-03-01T05:10:09;-2.00;95.00
3678;DHT22;1855;50.934;6.958;2023-03-01T05:12:35;-2.00;96.00
3678;DHT22;1855;50.934;6.958;2023-03-01T05:15:04;-1.90;95.80
3678;DHT22;1855;50.934;6.958;2023-03-01T05:17:32;-1.90;95.70
3678;DHT22;1855;50.934;6.958;2023-03-01T05:19:59;-1.80;95.70
3678;DHT22;1855;50.934;6.958;2023-03-01T05:22:26;-1.80;95.30
3678;DHT22;1855;50.934;6.958;2023-03-01T05:24:53;-1.70;95.50
3678;DHT22;1855;50.934;6.958;2023-03-01T05:27:20;-1.70;95.10
3678;DHT22;1855;50.934;6.958;2023-03-01T05:29:48;-1.80;95.00
3678;DHT22;1855;50.934;6.958;2023-03-01T05:32:16;-1.90;95.30
3678;DHT22;1855;50.934;6.958;2023-03-01T05:34:43;-1.90;95.70
3678;DHT22;1855;50.934;6.958;2023-03-01T05:37:11;-1.90;96.00
3678;DHT22;1855;50.934;6.958;2023-03-01T05:39:39;-1.90;96.20
3678;DHT22;1855;50.934;6.958;2023-03-01T05:42:10;-1.90;96.10
3678;DHT22;1855;50.934;6.958;2023-03-01T05:44:38;-1.90;96.00
3678;DHT22;1855;50.934;6.958;2023-03-01T05:47:04;-1.90;95.90
3678;DHT22;1855;50.934;6.958;2023-03-01T05:49:33;-2.00;95.80
3678;DHT22;1855;50.934;6.958;2023-03-01T05:52:00;-2.00;96.00
3678;DHT22;1855;50.934;6.958;2023-03-01T05:54:27;-2.00;96.10
3678;DHT22;1855;50.934;6.958;2023-03-01T05:56:53;-2.00;96.10
3678;DHT22;1855;50.934;6.958;2023-03-01T05:59:21;-2.10;96.30
3678;DHT22;1855;50.934;6.958;2023-03-01T06:01:48;-2.10;96.50
3678;DHT22;1855;50.934;6.958;2023-03-01T06:04:15;-2.20;96.40
3678;DHT22;1855;50.934;6.958;2023-03-01T06:06:43;-2.10;96.80
3678;DHT22;1855;50.934;6.958;2023-03-01T06:09:10;-2.10;96.90
3678;DHT22;1855;50.934;6.958;2023-03-01T06:11:37;-2.10;96.90
3678;DHT22;1855;50.934;6.958;2023-03-01T06:14:03;-2.10;96.70
3678;DHT22;1855;50.934;6.958;2023-03-01T06:16:31;-2.00;96.60
3678;DHT22;1855;50.934;6.958;2023-03-01T06:18:58;-2.10;96.30
3678;DHT22;1855;50.934;6.958;2023-03-01T06:21:25;-2.10;96.40
3678;DHT22;1855;50.934;6.958;2023-03-01T06:23:53;-2.10;96.20
3678;DHT22;1855;50.934;6.958;2023-03-01T06:26:20;-2.20;96.40
3678;DHT22;1855;50.934;6.958;2023-03-01T06:28:47;-2.20;96.60
3678;DHT22;1855;50.934;6.958;2023-03-01T06:31:13;-2.20;96.70
3678;DHT22;1855;50.934;6.958;2023-03-01T06:33:40;-2.20;96.90
3678;DHT22;1855;50.934;6.958;2023-03-01T06:36:08;-2.20;96.90
3678;DHT22;1855;50.934;6.958;2023-03-01T06:38:35;-2.10;96.80
3678;DHT22;1855;50.934;6.958;2023-03-01T06:41:03;-1.90;96.50
3678;DHT22;1855;50.934;6.958;2023-03-01T06:43:30;-1.80;95.60
3678;DHT22;1855;50.934;6.958;2023-03-01T06:45:57;-1.70;95.10
3678;DHT22;1855;50.934;6.958;2023-03-01T06:48:24;-1.70;94.80
3678;DHT22;1855;50.934;6.958;2023-03-01T06:50:50;-1.70;94.90
3678;DHT22;1855;50.934;6.958;2023-03-01T06:53:17;-1.70;94.90
3678;DHT22;1855;50.934;6.958;2023-03-01T06:55:44;-1.60;94.60
3678;DHT22;1855;50.934;6.958;2023-03-01T06:58:12;-1.50;94.10
3678;DHT22;1855;50.934;6.958;2023-03-01T07:00:39;-1.50;94.00
3678;DHT22;1855;50.934;6.958;2023-03-01T07:03:06;-1.40;93.60
3678;DHT22;1855;50.934;6.958;2023-03-01T07:05:33;-1.40;93.70
3678;DHT22;1855;50.934;6.958;2023-03-01T07:08:00;-1.40;93.70
3678;DHT22;1855;50.934;6.958;2023-03-01T07:10:27;-1.20;93.40
3678;DHT22;1855;50.934;6.958;2023-03-01T07:12:55;-1.20;93.40
3678;DHT22;1855;50.934;6.958;2023-03-01T07:15:23;-1.10;92.70
3678;DHT22;1855;50.934;6.958;2023-03-01T07:17:50;-1.10;92.70
3678;DHT22;1855;50.934;6.958;2023-03-01T07:20:18;-1.00;92.70
3678;DHT22;1855;50.934;6.958;2023-03-01T07:22:47;-0.90;92.00
3678;DHT22;1855;50.934;6.958;2023-03-01T07:25:14;-0.80;91.80
3678;DHT22;1855;50.934;6.958;2023-03-01T07:27:41;-0.70;91.30
3678;DHT22;1855;50.934;6.958;2023-03-01T07:30:09;-0.70;90.90
3678;DHT22;1855;50.934;6.958;2023-03-01T07:32:37;-0.50;90.30
3678;DHT22;1855;50.934;6.958;2023-03-01T07:35:05;-0.50;89.80
3678;DHT22;1855;50.934;6.958;2023-03-01T07:37:32;-0.40;89.30
3678;DHT22;1855;50.934;6.958;2023-03-01T07:39:58;-0.30;88.20
3678;DHT22;1855;50.934;6.958;2023-03-01T07:42:25;-0.20;87.30
3678;DHT22;1855;50.934;6.958;2023-03-01T07:44:52;-0.10;86.50
3678;DHT22;1855;50.934;6.958;2023-03-01T07:47:18;0.00;86.10
3678;DHT22;1855;50.934;6.958;2023-03-01T07:49:46;0.20;84.30
3678;DHT22;1855;50.934;6.958;2023-03-01T07:52:13;0.30;83.90
3678;DHT22;1855;50.934;6.958;2023-03-01T07:54:42;0.40;82.60
3678;DHT22;1855;50.934;6.958;2023-03-01T07:57:09;0.50;82.50
3678;DHT22;1855;50.934;6.958;2023-03-01T07:59:36;0.70;80.90
3678;DHT22;1855;50.934;6.958;2023-03-01T08:02:03;0.90;78.90
3678;DHT22;1855;50.934;6.958;2023-03-01T08:04:30;1.10;77.10
3678;DHT22;1855;50.934;6.958;2023-03-01T08:06:58;1.20;75.50
3678;DHT22;1855;50.934;6.958;2023-03-01T08:09:25;1.40;74.70
3678;DHT22;1855;50.934;6.958;2023-03-01T08:11:52;1.50;74.40
3678;DHT22;1855;50.934;6.958;2023-03-01T08:14:19;1.70;73.20
3678;DHT22;1855;50.934;6.958;2023-03-01T08:16:49;1.90;72.30
3678;DHT22;1855;50.934;6.958;2023-03-01T08:19:16;2.10;71.60
3678;DHT22;1855;50.934;6.958;2023-03-01T08:21:43;2.30;70.80
3678;DHT22;1855;50.934;6.958;2023-03-01T08:24:11;2.50;69.80
3678;DHT22;1855;50.934;6.958;2023-03-01T08:26:37;2.70;68.70
3678;DHT22;1855;50.934;6.958;2023-03-01T08:29:05;2.90;67.40
3678;DHT22;1855;50.934;6.958;2023-03-01T08:31:34;3.10;65.40
3678;DHT22;1855;50.934;6.958;2023-03-01T08:34:04;3.20;64.60
3678;DHT22;1855;50.934;6.958;2023-03-01T08:36:33;3.30;64.00
3678;DHT22;1855;50.934;6.958;2023-03-01T08:39:02;3.50;63.10
3678;DHT22;1855;50.934;6.958;2023-03-01T08:41:30;3.70;62.60
3678;DHT22;1855;50.934;6.958;2023-03-01T08:43:57;3.90;60.90
3678;DHT22;1855;50.934;6.958;2023-03-01T08:46:25;4.00;60.20
3678;DHT22;1855;50.934;6.958;2023-03-01T08:48:52;4.20;59.60
3678;DHT22;1855;50.934;6.958;2023-03-01T08:51:20;4.40;58.40
3678;DHT22;1855;50.934;6.958;2023-03-01T08:53:48;4.60;58.40
3678;DHT22;1855;50.934;6.958;2023-03-01T08:56:16;4.80;57.10
3678;DHT22;1855;50.934;6.958;2023-03-01T08:58:46;5.00;57.30
3678;DHT22;1855;50.934;6.958;2023-03-01T09:01:15;5.20;56.80
3678;DHT22;1855;50.934;6.958;2023-03-01T09:03:42;5.40;55.70
3678;DHT22;1855;50.934;6.958;2023-03-01T09:06:10;5.50;54.10
3678;DHT22;1855;50.934;6.958;2023-03-01T09:08:39;5.70;54.30
3678;DHT22;1855;50.934;6.958;2023-03-01T09:11:08;5.90;53.50
3678;DHT22;1855;50.934;6.958;2023-03-01T09:13:35;6.00;52.70
3678;DHT22;1855;50.934;6.958;2023-03-01T09:16:05;6.10;52.40
3678;DHT22;1855;50.934;6.958;2023-03-01T09:18:33;6.40;52.20
3678;DHT22;1855;50.934;6.958;2023-03-01T09:21:04;6.50;51.20
3678;DHT22;1855;50.934;6.958;2023-03-01T09:23:33;6.50;50.10
3678;DHT22;1855;50.934;6.958;2023-03-01T09:25:59;6.60;50.50
3678;DHT22;1855;50.934;6.958;2023-03-01T09:28:26;6.80;50.10
3678;DHT22;1855;50.934;6.958;2023-03-01T09:30:53;7.00;50.20
3678;DHT22;1855;50.934;6.958;2023-03-01T09:33:21;7.10;49.00
3678;DHT22;1855;50.934;6.958;2023-03-01T09:35:48;7.40;48.40
3678;DHT22;1855;50.934;6.958;2023-03-01T09:38:15;7.50;48.60
3678;DHT22;1855;50.934;6.958;2023-03-01T09:40:43;7.80;48.00
3678;DHT22;1855;50.934;6.958;2023-03-01T09:43:18;8.00;46.70
3678;DHT22;1855;50.934;6.958;2023-03-01T09:45:47;8.20;46.10
3678;DHT22;1855;50.934;6.958;2023-03-01T09:48:16;8.30;45.70
3678;DHT22;1855;50.934;6.958;2023-03-01T09:50:45;8.30;44.50
3678;DHT22;1855;50.934;6.958;2023-03-01T09:53:15;8.30;44.30
3678;DHT22;1855;50.934;6.958;2023-03-01T09:55:45;8.40;45.10
3678;DHT22;1855;50.934;6.958;2023-03-01T09:58:29;8.50;44.90
3678;DHT22;1855;50.934;6.958;2023-03-01T10:00:59;8.90;44.00
3678;DHT22;1855;50.934;6.958;2023-03-01T10:03:34;8.90;42.80
3678;DHT22;1855;50.934;6.958;2023-03-01T10:06:08;9.00;42.40
3678;DHT22;1855;50.934;6.958;2023-03-01T10:08:40;9.00;42.60
3678;DHT22;1855;50.934;6.958;2023-03-01T10:11:19;8.70;42.50
3678;DHT22;1855;50.934;6.958;2023-03-01T10:13:49;8.80;42.90
3678;DHT22;1855;50.934;6.958;2023-03-01T10:16:22;8.80;42.50
3678;DHT22;1855;50.934;6.958;2023-03-01T10:18:55;9.00;42.30
3678;DHT22;1855;50.934;6.958;2023-03-01T10:21:27;8.90;41.80
3678;DHT22;1855;50.934;6.958;2023-03-01T10:24:01;9.00;42.30
3678;DHT22;1855;50.934;6.958;2023-03-01T10:26:43;9.20;41.70
3678;DHT22;1855;50.934;6.958;2023-03-01T10:29:12;9.40;41.50
3678;DHT22;1855;50.934;6.958;2023-03-01T10:31:42;9.70;41.00
3678;DHT22;1855;50.934;6.958;2023-03-01T10:34:15;9.90;40.60
3678;DHT22;1855;50.934;6.958;2023-03-01T10:36:46;10.10;39.80
3678;DHT22;1855;50.934;6.958;2023-03-01T10:39:16;10.10;40.00
3678;DHT22;1855;50.934;6.958;2023-03-01T10:42:01;10.30;39.30
3678;DHT22;1855;50.934;6.958;2023-03-01T10:44:38;10.40;38.80
3678;DHT22;1855;50.934;6.958;2023-03-01T10:47:15;10.40;38.90
3678;DHT22;1855;50.934;6.958;2023-03-01T10:49:59;10.30;39.00
3678;DHT22;1855;50.934;6.958;2023-03-01T10:52:33;10.30;39.00
3678;DHT22;1855;50.934;6.958;2023-03-01T10:55:04;10.20;38.40
3678;DHT22;1855;50.934;6.958;2023-03-01T10:57:44;10.30;38.00
3678;DHT22;1855;50.934;6.958;2023-03-01T11:00:21;10.40;38.20
3678;DHT22;1855;50.934;6.958;2023-03-01T11:02:51;10.60;37.70
3678;DHT22;1855;50.934;6.958;2023-03-01T11:05:27;10.70;37.10
3678;DHT22;1855;50.934;6.958;2023-03-01T11:07:58;10.70;37.80
3678;DHT22;1855;50.934;6.958;2023-03-01T11:10:27;10.90;37.80
3678;DHT22;1855;50.934;6.958;2023-03-01T11:13:06;11.20;36.80
3678;DHT22;1855;50.934;6.958;2023-03-01T11:15:33;11.40;37.00
3678;DHT22;1855;50.934;6.958;2023-03-01T11:18:00;11.60;36.70
3678;DHT22;1855;50.934;6.958;2023-03-01T11:20:31;11.70;36.50
3678;DHT22;1855;50.934;6.958;2023-03-01T11:23:02;11.90;36.00
3678;DHT22;1855;50.934;6.958;2023-03-01T11:25:34;11.80;36.10
3678;DHT22;1855;50.934;6.958;2023-03-01T11:28:03;12.00;35.20
3678;DHT22;1855;50.934;6.958;2023-03-01T11:30:34;12.20;35.00
3678;DHT22;1855;50.934;6.958;2023-03-01T11:33:11;12.50;34.60
3678;DHT22;1855;50.934;6.958;2023-03-01T11:35:45;12.70;34.10
3678;DHT22;1855;50.934;6.958;2023-03-01T11:38:21;13.00;33.20
3678;DHT22;1855;50.934;6.958;2023-03-01T11:40:51;13.10;33.10
3678;DHT22;1855;50.934;6.958;2023-03-01T11:43:23;13.30;33.40
3678;DHT22;1855;50.934;6.958;2023-03-01T11:46:08;13.60;33.70
3678;DHT22;1855;50.934;6.958;2023-03-01T11:48:47;13.90;32.40
3678;DHT22;1855;50.934;6.958;2023-03-01T11:51:23;14.20;32.50
3678;DHT22;1855;50.934;6.958;2023-03-01T11:54:04;14.70;31.40
3678;DHT22;1855;50.934;6.958;2023-03-01T11:56:36;15.10;30.50
3678;DHT22;1855;50.934;6.958;2023-03-01T12:02:33;15.30;30.10
3678;DHT22;1855;50.934;6.958;2023-03-01T12:05:42;15.90;29.80
3678;DHT22;1855;50.934;6.958;2023-03-01T12:08:16;16.30;29.30
3678;DHT22;1855;50.934;6.958;2023-03-01T12:10:51;16.20;28.60
3678;DHT22;1855;50.934;6.958;2023-03-01T12:13:52;16.40;29.10
3678;DHT22;1855;50.934;6.958;2023-03-01T12:16:40;16.90;28.60
3678;DHT22;1855;50.934;6.958;2023-03-01T12:19:26;16.80;28.80
3678;DHT22;1855;50.934;6.958;2023-03-01T12:22:15;17.60;28.70
3678;DHT22;1855;50.934;6.958;2023-03-01T12:24:56;18.10;27.90
3678;DHT22;1855;50.934;6.958;2023-03-01T12:27:46;19.10;27.10
3678;DHT22;1855;50.934;6.958;2023-03-01T12:30:23;19.70;26.30
3678;DHT22;1855;50.934;6.958;2023-03-01T12:33:02;19.90;26.30
3678;DHT22;1855;50.934;6.958;2023-03-01T12:35:40;20.20;26.00
3678;DHT22;1855;50.934;6.958;2023-03-01T12:38:20;20.80;25.50
3678;DHT22;1855;50.934;6.958;2023-03-01T12:41:12;21.50;24.40
3678;DHT22;1855;50.934;6.958;2023-03-01T12:43:56;21.90;24.60
3678;DHT22;1855;50.934;6.958;2023-03-01T12:46:32;21.90;24.20
3678;DHT22;1855;50.934;6.958;2023-03-01T12:49:08;22.60;24.50
3678;DHT22;1855;50.934;6.958;2023-03-01T12:51:38;23.20;23.40
3678;DHT22;1855;50.934;6.958;2023-03-01T12:54:14;23.70;23.30
3678;DHT22;1855;50.934;6.958;2023-03-01T12:56:41;24.30;22.40
3678;DHT22;1855;50.934;6.958;2023-03-01T12:59:23;24.10;22.30
3678;DHT22;1855;50.934;6.958;2023-03-01T13:01:56;23.70;22.30
3678;DHT22;1855;50.934;6.958;2023-03-01T13:04:35;23.60;22.70
3678;DHT22;1855;50.934;6.958;2023-03-01T13:07:19;24.20;22.10
3678;DHT22;1855;50.934;6.958;2023-03-01T13:09:59;24.20;21.90
3678;DHT22;1855;50.934;6.958;2023-03-01T13:12:45;23.60;22.10
3678;DHT22;1855;50.934;6.958;2023-03-01T13:15:32;24.40;21.60
3678;DHT22;1855;50.934;6.958;2023-03-01T13:18:00;25.00;21.00
3678;DHT22;1855;50.934;6.958;2023-03-01T13:20:31;25.00;21.00
3678;DHT22;1855;50.934;6.958;2023-03-01T13:23:06;24.70;20.80
3678;DHT22;1855;50.934;6.958;2023-03-01T13:25:34;24.30;20.80
3678;DHT22;1855;50.934;6.958;2023-03-01T13:37:25;25.50;20.50
3678;DHT22;1855;50.934;6.958;2023-03-01T13:39:55;25.30;20.50
3678;DHT22;1855;50.934;6.958;2023-03-01T13:42:39;25.20;20.50
3678;DHT22;1855;50.934;6.958;2023-03-01T13:45:26;25.40;20.30
3678;DHT22;1855;50.934;6.958;2023-03-01T13:48:02;25.00;20.70
3678;DHT22;1855;50.934;6.958;2023-03-01T13:50:36;25.00;20.00
3678;DHT22;1855;50.934;6.958;2023-03-01T13:53:06;25.00;20.50
3678;DHT22;1855;50.934;6.958;2023-03-01T13:55:37;24.80;20.70
3678;DHT22;1855;50.934;6.958;2023-03-01T13:58:16;25.10;20.20
3678;DHT22;1855;50.934;6.958;2023-03-01T14:00:45;25.40;19.80
3678;DHT22;1855;50.934;6.958;2023-03-01T14:03:15;24.40;20.50
3678;DHT22;1855;50.934;6.958;2023-03-01T14:05:44;24.80;20.40
3678;DHT22;1855;50.934;6.958;2023-03-01T14:08:25;24.80;20.40
3678;DHT22;1855;50.934;6.958;2023-03-01T14:11:00;24.20;20.50
3678;DHT22;1855;50.934;6.958;2023-03-01T14:13:39;24.40;20.70
3678;DHT22;1855;50.934;6.958;2023-03-01T14:16:20;24.10;20.90
3678;DHT22;1855;50.934;6.958;2023-03-01T14:18:55;24.60;20.40
3678;DHT22;1855;50.934;6.958;2023-03-01T14:21:25;24.60;20.30
3678;DHT22;1855;50.934;6.958;2023-03-01T14:23:52;23.70;20.60
3678;DHT22;1855;50.934;6.958;2023-03-01T14:26:21;23.50;20.90
3678;DHT22;1855;50.934;6.958;2023-03-01T14:28:49;24.40;20.70
3678;DHT22;1855;50.934;6.958;2023-03-01T14:31:36;24.90;20.20
3678;DHT22;1855;50.934;6.958;2023-03-01T14:34:05;25.40;19.60
3678;DHT22;1855;50.934;6.958;2023-03-01T14:36:33;25.70;19.50
3678;DHT22;1855;50.934;6.958;2023-03-01T14:39:01;25.20;19.50
3678;DHT22;1855;50.934;6.958;2023-03-01T14:41:34;25.10;19.60
3678;DHT22;1855;50.934;6.958;2023-03-01T14:44:03;24.90;19.80
3678;DHT22;1855;50.934;6.958;2023-03-01T14:46:33;25.00;19.80
3678;DHT22;1855;50.934;6.958;2023-03-01T14:49:03;25.00;20.20
3678;DHT22;1855;50.934;6.958;2023-03-01T14:51:35;24.20;20.60
3678;DHT22;1855;50.934;6.958;2023-03-01T14:54:03;23.90;21.10
3678;DHT22;1855;50.934;6.958;2023-03-01T14:56:43;23.20;21.90
3678;DHT22;1855;50.934;6.958;2023-03-01T14:59:11;23.50;22.20
3678;DHT22;1855;50.934;6.958;2023-03-01T15:01:39;23.10;22.10
3678;DHT22;1855;50.934;6.958;2023-03-01T15:04:11;22.70;22.50
3678;DHT22;1855;50.934;6.958;2023-03-01T15:06:40;22.00;23.40
3678;DHT22;1855;50.934;6.958;2023-03-01T15:09:13;22.20;23.60
3678;DHT22;1855;50.934;6.958;2023-03-01T15:11:41;22.40;22.90
3678;DHT22;1855;50.934;6.958;2023-03-01T15:14:27;22.10;23.60
3678;DHT22;1855;50.934;6.958;2023-03-01T15:16:54;21.20;23.90
3678;DHT22;1855;50.934;6.958;2023-03-01T15:19:23;20.40;24.70
3678;DHT22;1855;50.934;6.958;2023-03-01T15:21:51;20.20;24.90
3678;DHT22;1855;50.934;6.958;2023-03-01T15:24:23;20.40;24.60
3678;DHT22;1855;50.934;6.958;2023-03-01T15:26:52;20.40;24.70
3678;DHT22;1855;50.934;6.958;2023-03-01T15:29:25;20.60;25.30
3678;DHT22;1855;50.934;6.958;2023-03-01T15:31:57;20.20;25.00
3678;DHT22;1855;50.934;6.958;2023-03-01T15:34:26;19.90;24.90
3678;DHT22;1855;50.934;6.958;2023-03-01T15:36:56;19.60;25.40
3678;DHT22;1855;50.934;6.958;2023-03-01T15:39:32;19.80;25.20
3678;DHT22;1855;50.934;6.958;2023-03-01T15:42:03;20.10;25.30
3678;DHT22;1855;50.934;6.958;2023-03-01T15:44:33;20.10;25.30
3678;DHT22;1855;50.934;6.958;2023-03-01T15:47:01;20.10;24.90
3678;DHT22;1855;50.934;6.958;2023-03-01T15:49:35;19.50;25.20
3678;DHT22;1855;50.934;6.958;2023-03-01T15:52:06;19.20;25.60
3678;DHT22;1855;50.934;6.958;2023-03-01T15:54:36;19.30;25.70
3678;DHT22;1855;50.934;6.958;2023-03-01T15:57:03;19.30;25.90
3678;DHT22;1855;50.934;6.958;2023-03-01T15:59:30;19.10;25.80
3678;DHT22;1855;50.934;6.958;2023-03-01T16:01:57;19.00;25.80
3678;DHT22;1855;50.934;6.958;2023-03-01T16:04:23;18.60;25.80
3678;DHT22;1855;50.934;6.958;2023-03-01T16:06:51;18.30;26.30
3678;DHT22;1855;50.934;6.958;2023-03-01T16:09:23;18.40;26.20
3678;DHT22;1855;50.934;6.958;2023-03-01T16:11:50;18.20;26.40
3678;DHT22;1855;50.934;6.958;2023-03-01T16:14:17;18.00;26.30
3678;DHT22;1855;50.934;6.958;2023-03-01T16:16:44;17.90;26.30
3678;DHT22;1855;50.934;6.958;2023-03-01T16:19:11;17.60;26.50
3678;DHT22;1855;50.934;6.958;2023-03-01T16:21:38;17.10;27.30
3678;DHT22;1855;50.934;6.958;2023-03-01T16:24:05;16.50;28.10
3678;DHT22;1855;50.934;6.958;2023-03-01T16:26:34;16.20;28.10
3678;DHT22;1855;50.934;6.958;2023-03-01T16:29:01;15.80;28.70
3678;DHT22;1855;50.934;6.958;2023-03-01T16:31:27;15.20;29.70
3678;DHT22;1855;50.934;6.958;2023-03-01T16:33:54;14.90;29.90
3678;DHT22;1855;50.934;6.958;2023-03-01T16:36:22;14.30;30.80
3678;DHT22;1855;50.934;6.958;2023-03-01T16:38:50;13.80;31.50